createdAt,value
2023-04-30T00:01:52.949Z,95721.11
2023-04-30T00:04:21.464Z,95720.17
2023-04-30T00:06:49.648Z,95724.54
2023-04-30T00:09:17.673Z,95724.11
2023-04-30T00:11:45.800Z,95722.17
2023-04-30T00:14:14.070Z,95720.00
2023-04-30T00:16:42.326Z,95720.41
2023-04-30T00:19:10.856Z,95718.23
2023-04-30T00:21:38.869Z,95718.08
2023-04-30T00:24:06.861Z,95719.65
2023-04-30T00:26:34.946Z,95721.37
2023-04-30T00:29:03.057Z,95717.27
2023-04-30T00:31:31.126Z,95717.16
2023-04-30T00:33:59.195Z,95720.84
2023-04-30T00:36:27.187Z,95724.91
2023-04-30T00:38:55.875Z,95721.58
2023-04-30T00:41:25.869Z,95718.88
2023-04-30T00:43:53.835Z,95716.93
2023-04-30T00:46:21.973Z,95719.35
2023-04-30T00:48:50.426Z,95715.55
2023-04-30T00:51:18.592Z,95713.26
2023-04-30T00:53:47.086Z,95712.73
2023-04-30T00:56:18.487Z,95707.98
2023-04-30T00:58:46.714Z,95710.37
2023-04-30T01:01:15.734Z,95709.53
2023-04-30T01:03:43.887Z,95709.60
2023-04-30T01:06:12.501Z,95704.77
2023-04-30T01:08:40.819Z,95704.97
2023-04-30T01:11:30.794Z,95707.23
2023-04-30T01:14:13.610Z,95708.95
2023-04-30T01:16:55.515Z,95708.59
2023-04-30T01:19:36.910Z,95705.64
2023-04-30T01:22:07.048Z,95706.85
2023-04-30T01:25:06.735Z,95706.24
2023-04-30T01:27:53.461Z,95704.02
2023-04-30T01:30:24.079Z,95700.00
2023-04-30T01:32:52.325Z,95695.92
2023-04-30T01:35:21.389Z,95694.64
2023-04-30T01:38:15.310Z,95691.65
2023-04-30T01:41:05.664Z,95690.77
2023-04-30T01:43:59.810Z,95683.23
2023-04-30T01:46:30.678Z,95678.77
2023-04-30T01:49:18.279Z,95680.75
2023-04-30T01:51:48.834Z,95678.45
2023-04-30T01:54:53.009Z,95677.88
2023-04-30T01:57:38.642Z,95675.14
2023-04-30T02:00:12.097Z,95675.55
2023-04-30T02:02:43.079Z,95672.77
2023-04-30T02:05:11.287Z,95678.22
2023-04-30T02:07:44.103Z,95674.75
2023-04-30T02:10:12.706Z,95678.11
2023-04-30T02:12:41.486Z,95677.92
2023-04-30T02:15:11.713Z,95678.06
2023-04-30T02:17:41.875Z,95677.58
2023-04-30T02:20:10.345Z,95678.05
2023-04-30T02:22:38.468Z,95674.74
2023-04-30T02:25:07.067Z,95674.58
2023-04-30T02:27:35.137Z,95672.55
2023-04-30T02:30:04.471Z,95668.40
2023-04-30T02:32:32.842Z,95668.58
2023-04-30T02:35:01.844Z,95669.61
2023-04-30T02:37:29.920Z,95667.25
2023-04-30T02:39:58.206Z,95670.62
2023-04-30T02:42:26.829Z,95673.25
2023-04-30T02:44:54.895Z,95674.75
2023-04-30T02:47:23.064Z,95677.60
2023-04-30T02:49:51.234Z,95677.00
2023-04-30T02:52:19.314Z,95675.80
2023-04-30T02:54:47.689Z,95678.80
2023-04-30T02:57:15.783Z,95679.08
2023-04-30T02:59:46.397Z,95681.90
2023-04-30T03:02:15.228Z,95679.72
2023-04-30T03:04:43.436Z,95679.94
2023-04-30T03:07:11.616Z,95680.33
2023-04-30T03:09:39.719Z,95678.96
2023-04-30T03:12:27.785Z,95683.48
2023-04-30T03:14:55.920Z,95685.75
2023-04-30T03:17:25.034Z,95688.31
2023-04-30T03:19:53.564Z,95689.53
2023-04-30T03:22:24.080Z,95695.30
2023-04-30T03:24:52.216Z,95694.93
2023-04-30T03:27:20.257Z,95696.25
2023-04-30T03:29:48.945Z,95697.89
2023-04-30T03:32:17.022Z,95699.15
2023-04-30T03:34:45.121Z,95700.09
2023-04-30T03:37:13.159Z,95705.62
2023-04-30T03:39:41.481Z,95706.11
2023-04-30T03:42:09.504Z,95706.69
2023-04-30T03:44:39.171Z,95708.30
2023-04-30T03:47:07.437Z,95708.55
2023-04-30T03:49:35.568Z,95708.67
2023-04-30T03:52:05.739Z,95709.06
2023-04-30T03:54:34.322Z,95713.13
2023-04-30T03:57:04.691Z,95714.92
2023-04-30T03:59:32.889Z,95711.02
2023-04-30T04:02:02.032Z,95715.25
2023-04-30T04:04:51.504Z,95713.77
2023-04-30T04:07:19.599Z,95719.25
2023-04-30T04:09:48.326Z,95721.84
2023-04-30T04:20:25.188Z,95727.23
2023-04-30T04:22:53.258Z,95723.39
2023-04-30T04:25:25.162Z,95720.31
2023-04-30T04:27:53.292Z,95716.79
2023-04-30T04:30:21.361Z,95718.03
2023-04-30T04:32:54.058Z,95721.26
2023-04-30T04:35:22.629Z,95720.23
2023-04-30T04:37:50.778Z,95722.00
2023-04-30T04:40:18.982Z,95723.81
2023-04-30T04:42:51.549Z,95723.45
2023-04-30T04:45:20.887Z,95723.16
2023-04-30T04:47:49.930Z,95725.90
2023-04-30T04:50:18.607Z,95727.61
2023-04-30T04:52:46.834Z,95727.14
2023-04-30T04:55:15.746Z,95726.39
2023-04-30T04:57:43.960Z,95726.50
2023-04-30T05:00:13.232Z,95731.27
2023-04-30T05:02:42.359Z,95730.71
2023-04-30T05:05:11.135Z,95729.52
2023-04-30T05:07:39.163Z,95733.13
2023-04-30T05:10:08.866Z,95733.79
2023-04-30T05:12:54.348Z,95725.60
2023-04-30T05:15:22.444Z,95730.16
2023-04-30T05:17:50.517Z,95726.42
2023-04-30T05:20:18.606Z,95728.71
2023-04-30T05:22:46.606Z,95733.28
2023-04-30T05:25:14.772Z,95730.48
2023-04-30T05:27:42.861Z,95729.83
2023-04-30T05:30:11.693Z,95731.65
2023-04-30T05:32:39.783Z,95728.19
2023-04-30T05:35:08.733Z,95728.38
2023-04-30T05:37:36.853Z,95725.66
2023-04-30T05:40:06.532Z,95724.58
2023-04-30T05:42:34.647Z,95727.02
2023-04-30T05:45:03.141Z,95728.27
2023-04-30T05:47:31.246Z,95726.02
2023-04-30T05:49:59.263Z,95727.66
2023-04-30T05:52:27.297Z,95729.83
2023-04-30T05:54:55.386Z,95730.04
2023-04-30T05:57:23.508Z,95727.70
2023-04-30T05:59:51.650Z,95725.91
2023-04-30T06:02:19.766Z,95730.55
2023-04-30T06:04:48.153Z,95730.92
2023-04-30T06:07:16.213Z,95731.59
2023-04-30T06:09:44.290Z,95734.98
2023-04-30T06:12:12.380Z,95735.86
2023-04-30T06:14:43.591Z,95733.48
2023-04-30T06:17:13.652Z,95736.73
2023-04-30T06:19:41.717Z,95737.19
2023-04-30T06:22:09.783Z,95739.07
2023-04-30T06:24:37.840Z,95740.23
2023-04-30T06:27:06.177Z,95741.73
2023-04-30T06:29:34.315Z,95742.66
2023-04-30T06:32:02.290Z,95744.91
2023-04-30T06:34:30.573Z,95740.91
2023-04-30T06:36:58.683Z,95737.13
2023-04-30T06:39:26.622Z,95735.13
2023-04-30T06:41:54.632Z,95736.60
2023-04-30T06:44:23.171Z,95733.89
2023-04-30T06:46:51.158Z,95735.23
2023-04-30T06:49:19.077Z,95732.69
2023-04-30T06:51:47.022Z,95732.71
2023-04-30T06:54:15.023Z,95735.52
2023-04-30T06:56:44.048Z,95730.52
2023-04-30T06:59:12.384Z,95727.40
2023-04-30T07:01:40.996Z,95725.01
2023-04-30T07:04:09.140Z,95727.01
2023-04-30T07:06:37.231Z,95726.16
2023-04-30T07:09:05.295Z,95723.63
2023-04-30T07:11:33.248Z,95722.26
2023-04-30T07:14:01.223Z,95723.23
2023-04-30T07:16:29.367Z,95725.39
2023-04-30T07:18:57.600Z,95725.31
2023-04-30T07:21:26.152Z,95720.01
2023-04-30T07:23:54.178Z,95714.88
2023-04-30T07:26:25.095Z,95716.48
2023-04-30T07:28:53.261Z,95714.21
2023-04-30T07:31:21.222Z,95720.48
2023-04-30T07:33:50.735Z,95725.51
2023-04-30T07:36:18.671Z,95722.28
2023-04-30T07:38:46.787Z,95723.75
2023-04-30T07:41:14.754Z,95720.94
2023-04-30T07:43:42.748Z,95721.45
2023-04-30T07:46:10.863Z,95722.27
2023-04-30T07:48:39.211Z,95723.10
2023-04-30T07:51:07.154Z,95721.20
2023-04-30T07:53:35.085Z,95719.96
2023-04-30T07:56:03.510Z,95719.61
2023-04-30T07:58:31.497Z,95723.31
2023-04-30T08:00:59.547Z,95724.36
2023-04-30T08:03:27.649Z,95724.53
2023-04-30T08:05:55.822Z,95727.94
2023-04-30T08:08:23.734Z,95733.58
2023-04-30T08:10:51.623Z,95731.05
2023-04-30T08:13:20.861Z,95732.14
2023-04-30T08:15:48.838Z,95730.77
2023-04-30T08:18:16.954Z,95728.09
2023-04-30T08:20:44.980Z,95734.44
2023-04-30T08:23:12.934Z,95730.02
2023-04-30T08:25:40.892Z,95729.98
2023-04-30T08:28:09.236Z,95728.26
2023-04-30T08:30:37.153Z,95732.07
2023-04-30T08:33:05.159Z,95735.65
2023-04-30T08:35:33.308Z,95730.94
2023-04-30T08:38:01.245Z,95727.27
2023-04-30T08:40:49.525Z,95724.20
2023-04-30T08:43:20.399Z,95723.06
2023-04-30T08:45:51.157Z,95728.27
2023-04-30T08:48:20.251Z,95724.67
2023-04-30T08:50:49.017Z,95720.60
2023-04-30T08:53:21.185Z,95721.98
2023-04-30T08:55:49.253Z,95718.04
2023-04-30T08:58:17.150Z,95725.57
2023-04-30T09:00:45.025Z,95723.08
2023-04-30T09:03:13.489Z,95717.02
2023-04-30T09:05:41.958Z,95716.13
2023-04-30T09:08:10.183Z,95715.36
2023-04-30T09:10:38.138Z,95717.12
2023-04-30T09:13:09.619Z,95718.16
2023-04-30T09:15:41.853Z,95718.64
2023-04-30T09:18:17.778Z,95713.15
2023-04-30T09:20:54.747Z,95709.98
2023-04-30T09:23:23.588Z,95706.85
2023-04-30T09:25:51.749Z,95711.64
2023-04-30T09:28:23.930Z,95718.34
2023-04-30T09:30:52.485Z,95719.72
2023-04-30T09:33:20.542Z,95719.20
2023-04-30T09:35:49.362Z,95714.27
2023-04-30T09:38:32.309Z,95710.13
2023-04-30T09:41:01.599Z,95706.26
2023-04-30T09:43:30.245Z,95707.70
2023-04-30T09:45:59.993Z,95707.88
2023-04-30T09:48:28.619Z,95701.03
2023-04-30T09:50:56.849Z,95708.77
2023-04-30T09:53:24.967Z,95709.58
2023-04-30T09:55:53.075Z,95709.09
2023-04-30T09:58:21.385Z,95699.46
2023-04-30T10:00:51.553Z,95696.97
2023-04-30T10:03:22.954Z,95696.41
2023-04-30T10:05:53.376Z,95695.38
2023-04-30T10:08:31.800Z,95694.64
2023-04-30T10:11:07.871Z,95694.29
2023-04-30T10:13:46.210Z,95694.63
2023-04-30T10:16:49.171Z,95691.79
2023-04-30T10:19:22.715Z,95690.56
2023-04-30T10:21:51.632Z,95693.05
2023-04-30T10:24:21.426Z,95695.95
2023-04-30T10:26:49.965Z,95696.86
2023-04-30T10:29:18.925Z,95690.80
2023-04-30T10:31:49.772Z,95688.34
2023-04-30T10:34:29.072Z,95685.53
2023-04-30T10:37:01.047Z,95681.80
2023-04-30T10:39:29.775Z,95679.30
2023-04-30T10:42:05.578Z,95678.41
2023-04-30T10:44:35.358Z,95684.75
2023-04-30T10:47:05.681Z,95683.73
2023-04-30T10:49:34.160Z,95683.38
2023-04-30T10:52:04.588Z,95676.23
2023-04-30T10:54:37.112Z,95668.92
2023-04-30T10:57:12.141Z,95674.83
2023-04-30T10:59:51.527Z,95680.55
2023-04-30T11:02:19.563Z,95678.29
2023-04-30T11:05:07.591Z,95679.02
2023-04-30T11:07:36.246Z,95675.55
2023-04-30T11:10:08.954Z,95672.52
2023-04-30T11:12:41.657Z,95675.65
2023-04-30T11:15:14.598Z,95674.72
2023-04-30T11:17:45.974Z,95672.39
2023-04-30T11:20:18.855Z,95668.92
2023-04-30T11:22:46.863Z,95663.77
2023-04-30T11:25:19.896Z,95667.39
2023-04-30T11:27:47.886Z,95668.45
2023-04-30T11:30:17.887Z,95672.63
2023-04-30T11:32:49.322Z,95673.67
2023-04-30T11:35:19.874Z,95669.09
2023-04-30T11:37:48.990Z,95669.14
2023-04-30T11:40:16.955Z,95669.89
2023-04-30T11:42:46.623Z,95668.20
2023-04-30T11:45:23.571Z,95675.34
2023-04-30T11:47:54.527Z,95667.13
2023-04-30T11:50:29.486Z,95661.34
2023-04-30T11:52:59.332Z,95662.97
2023-04-30T11:55:28.467Z,95657.48
2023-04-30T11:57:59.387Z,95649.56
2023-04-30T12:00:29.606Z,95645.78
2023-04-30T12:03:01.608Z,95660.17
2023-04-30T12:05:29.943Z,95654.15
2023-04-30T12:08:04.426Z,95651.59
2023-04-30T12:10:32.918Z,95648.80
2023-04-30T12:13:00.889Z,95639.02
2023-04-30T12:15:29.296Z,95641.63
2023-04-30T12:17:59.250Z,95640.63
2023-04-30T12:20:31.058Z,95638.58
2023-04-30T12:22:59.094Z,95637.55
2023-04-30T12:25:28.809Z,95642.07
2023-04-30T12:27:59.868Z,95636.80
2023-04-30T12:30:27.871Z,95643.45
2023-04-30T12:32:58.705Z,95636.91
2023-04-30T12:35:29.436Z,95630.86
2023-04-30T12:38:06.646Z,95630.63
2023-04-30T12:40:34.936Z,95633.50
2023-04-30T12:43:05.759Z,95636.77
2023-04-30T12:45:46.876Z,95631.54
2023-04-30T12:48:16.730Z,95626.48
2023-04-30T12:50:54.167Z,95626.77
2023-04-30T12:53:24.226Z,95628.95
2023-04-30T12:56:16.052Z,95630.14
2023-04-30T12:58:50.679Z,95624.92
2023-04-30T13:01:24.366Z,95626.39
2023-04-30T13:03:54.058Z,95623.86
2023-04-30T13:06:23.523Z,95620.67
2023-04-30T13:08:58.380Z,95617.46
2023-04-30T13:11:27.854Z,95613.16
2023-04-30T13:13:56.256Z,95615.09
2023-04-30T13:16:25.442Z,95619.59
2023-04-30T13:18:54.967Z,95616.95
2023-04-30T13:21:24.944Z,95612.51
2023-04-30T13:23:54.578Z,95608.59
2023-04-30T13:26:23.958Z,95606.63
2023-04-30T13:28:52.141Z,95607.42
2023-04-30T13:31:20.753Z,95610.29
2023-04-30T13:33:49.846Z,95612.60
2023-04-30T13:36:18.205Z,95615.52
2023-04-30T13:38:46.474Z,95609.20
2023-04-30T13:41:14.668Z,95606.36
2023-04-30T13:43:43.814Z,95600.83
2023-04-30T13:46:11.992Z,95599.97
2023-04-30T13:48:40.057Z,95595.36
2023-04-30T13:51:08.377Z,95597.48
2023-04-30T13:53:37.429Z,95603.96
2023-04-30T13:56:05.927Z,95608.30
2023-04-30T13:58:33.937Z,95605.73
2023-04-30T14:01:02.722Z,95601.98
2023-04-30T14:03:31.240Z,95610.30
2023-04-30T14:05:59.290Z,95606.77
2023-04-30T14:08:27.296Z,95604.19
2023-04-30T14:10:55.879Z,95610.76
2023-04-30T14:13:24.079Z,95619.46
2023-04-30T14:15:52.062Z,95608.23
2023-04-30T14:18:22.837Z,95609.41
2023-04-30T14:20:51.212Z,95609.00
2023-04-30T14:23:19.321Z,95610.79
2023-04-30T14:25:47.793Z,95609.23
2023-04-30T14:28:15.812Z,95613.66
2023-04-30T14:30:43.854Z,95611.45
2023-04-30T14:33:13.107Z,95614.17
2023-04-30T14:35:41.736Z,95620.02
2023-04-30T14:38:09.792Z,95614.42
2023-04-30T14:40:37.759Z,95610.39
2023-04-30T14:43:05.761Z,95611.17
2023-04-30T14:45:33.789Z,95607.23
2023-04-30T14:48:04.619Z,95610.23
2023-04-30T14:50:33.388Z,95612.50
2023-04-30T14:53:01.338Z,95609.76
2023-04-30T14:55:29.534Z,95607.67
2023-04-30T14:57:58.145Z,95613.32
2023-04-30T15:00:26.208Z,95612.43
2023-04-30T15:02:54.234Z,95611.81
2023-04-30T15:05:22.300Z,95613.69
2023-04-30T15:07:50.389Z,95617.84
2023-04-30T15:10:19.728Z,95618.23
2023-04-30T15:12:48.206Z,95619.31
2023-04-30T15:15:18.911Z,95621.30
2023-04-30T15:17:47.253Z,95625.51
2023-04-30T15:20:15.404Z,95626.45
2023-04-30T15:22:43.489Z,95625.92
2023-04-30T15:25:11.496Z,95623.80
2023-04-30T15:27:39.902Z,95626.83
2023-04-30T15:30:08.413Z,95631.98
2023-04-30T15:32:36.763Z,95640.38
2023-04-30T15:35:05.854Z,95642.19
2023-04-30T15:37:34.664Z,95639.70
2023-04-30T15:40:05.095Z,95645.52
2023-04-30T15:42:33.273Z,95650.14
2023-04-30T15:45:01.342Z,95653.00
2023-04-30T15:47:29.477Z,95654.63
2023-04-30T15:49:57.930Z,95655.07
2023-04-30T15:52:25.947Z,95658.33
2023-04-30T15:54:53.952Z,95657.70
2023-04-30T15:57:24.602Z,95654.25
2023-04-30T15:59:53.610Z,95653.21
2023-04-30T16:02:21.873Z,95659.33
2023-04-30T16:04:49.935Z,95660.52
2023-04-30T16:07:18.198Z,95666.48
2023-04-30T16:09:49.130Z,95667.59
2023-04-30T16:12:17.329Z,95669.20
2023-04-30T16:14:45.494Z,95667.11
2023-04-30T16:17:13.515Z,95672.16
2023-04-30T16:19:41.518Z,95672.75
2023-04-30T16:22:09.530Z,95675.69
2023-04-30T16:24:37.591Z,95676.98
2023-04-30T16:27:05.634Z,95679.92
2023-04-30T16:29:33.646Z,95682.30
2023-04-30T16:32:02.300Z,95684.34
2023-04-30T16:34:30.436Z,95681.14
2023-04-30T16:36:58.331Z,95683.33
2023-04-30T16:39:26.457Z,95685.87
2023-04-30T16:41:55.087Z,95685.85
2023-04-30T16:44:23.071Z,95688.09
2023-04-30T16:46:51.089Z,95691.41
2023-04-30T16:49:19.019Z,95687.80
2023-04-30T16:51:47.054Z,95688.13
2023-04-30T16:54:15.154Z,95690.95
2023-04-30T16:56:43.726Z,95696.64
2023-04-30T16:59:12.016Z,95694.06
2023-04-30T17:01:40.056Z,95694.12
2023-04-30T17:04:08.018Z,95694.17
2023-04-30T17:06:36.826Z,95697.83
2023-04-30T17:09:05.128Z,95704.95
2023-04-30T17:11:34.098Z,95700.96
2023-04-30T17:14:02.182Z,95704.45
2023-04-30T17:16:30.287Z,95705.28
2023-04-30T17:18:58.696Z,95706.29
2023-04-30T17:21:29.863Z,95711.40
2023-04-30T17:23:58.760Z,95711.48
2023-04-30T17:26:26.785Z,95716.05
2023-04-30T17:28:54.812Z,95723.30
2023-04-30T17:31:24.185Z,95722.23
2023-04-30T17:33:52.356Z,95727.54
2023-04-30T17:36:20.309Z,95729.10
2023-04-30T17:38:48.390Z,95731.15
2023-04-30T17:41:19.823Z,95736.02
2023-04-30T17:43:47.873Z,95740.38
2023-04-30T17:46:15.998Z,95746.26
2023-04-30T17:48:44.511Z,95749.59
2023-04-30T17:51:12.552Z,95751.36
2023-04-30T17:53:40.828Z,95754.89
2023-04-30T17:56:09.618Z,95757.48
2023-04-30T17:58:39.782Z,95761.45
2023-04-30T18:01:08.133Z,95762.02
2023-04-30T18:03:36.681Z,95765.59
2023-04-30T18:06:04.970Z,95773.88
2023-04-30T18:08:33.009Z,95778.34
2023-04-30T18:11:03.492Z,95782.31
2023-04-30T18:13:31.761Z,95784.73
2023-04-30T18:15:59.981Z,95790.50
2023-04-30T18:18:27.934Z,95794.23
2023-04-30T18:20:55.984Z,95795.60
2023-04-30T18:23:25.376Z,95798.47
2023-04-30T18:25:53.653Z,95802.93
2023-04-30T18:28:21.642Z,95806.66
2023-04-30T18:30:50.003Z,95808.21
2023-04-30T18:33:18.009Z,95807.98
2023-04-30T18:35:51.566Z,95816.06
2023-04-30T18:38:20.668Z,95815.88
2023-04-30T18:40:53.446Z,95822.67
2023-04-30T18:43:22.634Z,95821.71
2023-04-30T18:45:51.415Z,95828.16
2023-04-30T18:48:19.872Z,95829.10
2023-04-30T18:50:47.817Z,95833.67
2023-04-30T18:53:17.108Z,95843.64
2023-04-30T18:55:45.557Z,95846.20
2023-04-30T18:58:13.755Z,95847.67
2023-04-30T19:00:43.189Z,95850.84
2023-04-30T19:03:11.433Z,95856.23
2023-04-30T19:05:39.493Z,95859.49
2023-04-30T19:08:08.699Z,95859.97
2023-04-30T19:10:36.663Z,95858.86
2023-04-30T19:13:04.675Z,95861.63
2023-04-30T19:15:32.705Z,95863.81
2023-04-30T19:18:00.702Z,95868.41
2023-04-30T19:20:28.728Z,95872.02
2023-04-30T19:22:56.590Z,95870.61
2023-04-30T19:25:24.691Z,95869.55
2023-04-30T19:27:52.678Z,95866.68
2023-04-30T19:30:20.716Z,95867.92
2023-04-30T19:32:48.719Z,95870.02
2023-04-30T19:35:16.741Z,95871.55
2023-04-30T19:37:44.797Z,95873.27
2023-04-30T19:40:14.414Z,95874.40
2023-04-30T19:42:42.408Z,95875.67
2023-04-30T19:45:11.267Z,95880.72
2023-04-30T19:47:39.667Z,95884.39
2023-04-30T19:50:08.649Z,95886.67
2023-04-30T19:52:37.004Z,95886.49
2023-04-30T19:55:25.458Z,95888.92
2023-04-30T19:57:53.526Z,95892.23
2023-04-30T20:00:21.545Z,95890.02
2023-04-30T20:02:49.594Z,95891.28
2023-04-30T20:05:18.900Z,95894.98
2023-04-30T20:07:47.255Z,95896.43
2023-04-30T20:10:15.348Z,95899.00
2023-04-30T20:12:43.490Z,95901.21
2023-04-30T20:15:11.672Z,95901.10
2023-04-30T20:17:39.823Z,95904.70
2023-04-30T20:20:08.361Z,95907.11
2023-04-30T20:22:36.491Z,95907.87
2023-04-30T20:25:05.360Z,95911.59
2023-04-30T20:27:34.387Z,95910.34
2023-04-30T20:30:04.668Z,95913.88
2023-04-30T20:32:32.834Z,95915.52
2023-04-30T20:35:03.783Z,95916.63
2023-04-30T20:37:34.903Z,95924.19
2023-04-30T20:40:04.052Z,95923.40
2023-04-30T20:42:32.417Z,95925.47
2023-04-30T20:45:02.383Z,95930.38
2023-04-30T20:47:32.039Z,95930.33
2023-04-30T20:50:00.501Z,95931.17
2023-04-30T20:52:28.634Z,95936.44
2023-04-30T20:55:13.039Z,95937.48
2023-04-30T20:58:01.847Z,95933.85
2023-04-30T21:00:29.876Z,95933.94
2023-04-30T21:02:58.141Z,95935.71
2023-04-30T21:05:28.632Z,95936.39
2023-04-30T21:08:01.389Z,95935.33
2023-04-30T21:10:36.385Z,95938.12
2023-04-30T21:13:05.939Z,95938.63
2023-04-30T21:15:36.413Z,95941.23
2023-04-30T21:18:04.719Z,95945.25
2023-04-30T21:20:32.984Z,95945.05
2023-04-30T21:23:02.557Z,95946.98
2023-04-30T21:25:30.750Z,95948.10
2023-04-30T21:27:58.886Z,95951.20
2023-04-30T21:30:27.367Z,95950.52
2023-04-30T21:32:58.842Z,95951.88
2023-04-30T21:35:33.185Z,95957.75
2023-04-30T21:38:01.363Z,95962.64
2023-04-30T21:40:33.796Z,95961.73
2023-04-30T21:43:01.977Z,95962.76
2023-04-30T21:45:32.276Z,95963.74
2023-04-30T21:48:00.534Z,95966.27
2023-04-30T21:50:32.088Z,95973.09
2023-04-30T21:53:00.255Z,95976.36
2023-04-30T21:55:28.514Z,95972.85
2023-04-30T21:57:57.064Z,95974.38
2023-04-30T22:00:25.414Z,95975.27
2023-04-30T22:02:54.325Z,95977.81
2023-04-30T22:05:22.509Z,95981.32
2023-04-30T22:07:50.701Z,95980.69
2023-04-30T22:10:18.848Z,95983.31
2023-04-30T22:12:48.007Z,95982.11
2023-04-30T22:15:16.508Z,95981.29
2023-04-30T22:17:46.349Z,95984.92
2023-04-30T22:20:14.592Z,95987.71
2023-04-30T22:22:42.814Z,95988.11
2023-04-30T22:25:10.867Z,95992.41
2023-04-30T22:27:38.952Z,95994.22
2023-04-30T22:30:07.969Z,95995.44
2023-04-30T22:32:36.143Z,95995.89
2023-04-30T22:35:06.904Z,95996.83
2023-04-30T22:37:38.673Z,95995.14
2023-04-30T22:40:07.854Z,95994.77
2023-04-30T22:42:36.152Z,95995.73
2023-04-30T22:45:05.090Z,96000.07
2023-04-30T22:47:35.189Z,96001.89
2023-04-30T22:50:03.973Z,96007.36
2023-04-30T22:52:33.232Z,96009.44
2023-04-30T22:55:02.634Z,96008.52
2023-04-30T22:57:31.389Z,96010.21
2023-04-30T23:00:19.195Z,96011.04
2023-04-30T23:02:47.429Z,96014.63
2023-04-30T23:05:15.632Z,96018.61
2023-04-30T23:07:44.046Z,96022.13
2023-04-30T23:10:12.197Z,96018.02
2023-04-30T23:12:40.400Z,96020.07
2023-04-30T23:15:09.038Z,96013.40
2023-04-30T23:17:37.227Z,96012.86
2023-04-30T23:20:06.209Z,96010.49
2023-04-30T23:22:34.372Z,96007.13
2023-04-30T23:25:03.117Z,96004.46
2023-04-30T23:27:31.880Z,96002.40
2023-04-30T23:30:00.732Z,96000.70
2023-04-30T23:32:28.986Z,96002.98
2023-04-30T23:34:57.446Z,96004.58
2023-04-30T23:37:25.746Z,96005.49
2023-04-30T23:39:54.588Z,96003.62
2023-04-30T23:42:22.911Z,96004.41
2023-04-30T23:44:51.212Z,96000.92
2023-04-30T23:47:19.486Z,95999.77
2023-04-30T23:49:47.573Z,96003.23
2023-04-30T23:52:16.451Z,95999.22
2023-04-30T23:54:44.718Z,96000.52
2023-04-30T23:57:13.007Z,95999.88
2023-04-30T23:59:42.575Z,95999.65
